sensor_id;sensor_type;location;lat;lon;timestamp;P1;durP1;ratioP1;P2;durP2;ratioP2
75246;SDS011;63844;50.042;19.224;2024-01-30T00:16:54;171.70;;;70.70;;
75246;SDS011;63844;50.042;19.224;2024-01-30T00:18:30;153.20;;;62.00;;
75246;SDS011;63844;50.042;19.224;2024-01-30T00:20:07;145.30;;;57.00;;
75246;SDS011;63844;50.042;19.224;2024-01-30T00:21:45;127.80;;;50.90;;
75246;SDS011;63844;50.042;19.224;2024-01-30T00:23:22;144.50;;;54.20;;
75246;SDS011;63844;50.042;19.224;2024-01-30T00:24:58;131.80;;;51.60;;
75246;SDS011;63844;50.042;19.224;2024-01-30T00:26:35;144.40;;;50.80;;
75246;SDS011;63844;50.042;19.224;2024-01-30T00:28:12;124.40;;;48.20;;
75246;SDS011;63844;50.042;19.224;2024-01-30T00:29:48;135.70;;;51.90;;
75246;SDS011;63844;50.042;19.224;2024-01-30T00:31:25;122.40;;;46.20;;
75246;SDS011;63844;50.042;19.224;2024-01-30T00:33:02;110.90;;;41.20;;
75246;SDS011;63844;50.042;19.224;2024-01-30T00:34:39;138.80;;;51.60;;
75246;SDS011;63844;50.042;19.224;2024-01-30T00:36:15;126.00;;;47.10;;
75246;SDS011;63844;50.042;19.224;2024-01-30T00:37:52;104.50;;;39.80;;
75246;SDS011;63844;50.042;19.224;2024-01-30T00:39:28;139.00;;;52.10;;
75246;SDS011;63844;50.042;19.224;2024-01-30T00:41:05;134.40;;;50.50;;
75246;SDS011;63844;50.042;19.224;2024-01-30T00:42:43;132.30;;;46.70;;
75246;SDS011;63844;50.042;19.224;2024-01-30T00:44:20;120.30;;;45.40;;
75246;SDS011;63844;50.042;19.224;2024-01-30T00:45:56;130.40;;;46.50;;
75246;SDS011;63844;50.042;19.224;2024-01-30T00:47:34;106.60;;;39.90;;
75246;SDS011;63844;50.042;19.224;2024-01-30T00:49:10;130.90;;;49.10;;
75246;SDS011;63844;50.042;19.224;2024-01-30T00:50:47;113.70;;;44.30;;
75246;SDS011;63844;50.042;19.224;2024-01-30T00:52:23;116.80;;;42.00;;
75246;SDS011;63844;50.042;19.224;2024-01-30T00:54:00;126.40;;;48.80;;
75246;SDS011;63844;50.042;19.224;2024-01-30T00:55:36;133.30;;;49.90;;
75246;SDS011;63844;50.042;19.224;2024-01-30T00:57:13;130.40;;;50.90;;
75246;SDS011;63844;50.042;19.224;2024-01-30T00:58:50;111.60;;;43.70;;
75246;SDS011;63844;50.042;19.224;2024-01-30T01:00:26;115.00;;;41.00;;
75246;SDS011;63844;50.042;19.224;2024-01-30T01:02:05;129.00;;;45.00;;
75246;SDS011;63844;50.042;19.224;2024-01-30T01:03:42;118.70;;;44.80;;
75246;SDS011;63844;50.042;19.224;2024-01-30T01:05:20;106.00;;;40.80;;
75246;SDS011;63844;50.042;19.224;2024-01-30T01:06:56;119.10;;;43.60;;
75246;SDS011;63844;50.042;19.224;2024-01-30T01:08:33;125.90;;;47.50;;
75246;SDS011;63844;50.042;19.224;2024-01-30T01:10:09;122.20;;;46.50;;
75246;SDS011;63844;50.042;19.224;2024-01-30T01:11:47;117.10;;;42.60;;
75246;SDS011;63844;50.042;19.224;2024-01-30T01:13:24;120.90;;;46.20;;
75246;SDS011;63844;50.042;19.224;2024-01-30T01:15:00;110.20;;;42.70;;
75246;SDS011;63844;50.042;19.224;2024-01-30T01:16:38;109.80;;;42.40;;
75246;SDS011;63844;50.042;19.224;2024-01-30T01:18:15;114.50;;;44.10;;
75246;SDS011;63844;50.042;19.224;2024-01-30T01:19:52;80.30;;;31.80;;
75246;SDS011;63844;50.042;19.224;2024-01-30T01:21:28;102.70;;;39.10;;
75246;SDS011;63844;50.042;19.224;2024-01-30T01:23:05;101.90;;;39.50;;
75246;SDS011;63844;50.042;19.224;2024-01-30T01:24:41;92.60;;;37.90;;
75246;SDS011;63844;50.042;19.224;2024-01-30T01:26:18;108.70;;;41.10;;
75246;SDS011;63844;50.042;19.224;2024-01-30T01:27:54;113.60;;;43.30;;
75246;SDS011;63844;50.042;19.224;2024-01-30T01:29:31;101.80;;;40.00;;
75246;SDS011;63844;50.042;19.224;2024-01-30T01:31:08;104.10;;;39.60;;
75246;SDS011;63844;50.042;19.224;2024-01-30T01:32:45;109.50;;;44.10;;
75246;SDS011;63844;50.042;19.224;2024-01-30T01:34:30;91.40;;;36.90;;
75246;SDS011;63844;50.042;19.224;2024-01-30T01:36:07;86.20;;;33.80;;
75246;SDS011;63844;50.042;19.224;2024-01-30T01:37:43;90.70;;;36.50;;
75246;SDS011;63844;50.042;19.224;2024-01-30T01:39:20;113.00;;;43.40;;
75246;SDS011;63844;50.042;19.224;2024-01-30T01:40:58;107.00;;;40.70;;
75246;SDS011;63844;50.042;19.224;2024-01-30T01:42:35;95.60;;;37.40;;
75246;SDS011;63844;50.042;19.224;2024-01-30T01:44:12;98.70;;;41.00;;
75246;SDS011;63844;50.042;19.224;2024-01-30T01:45:48;108.80;;;41.00;;
75246;SDS011;63844;50.042;19.224;2024-01-30T01:47:25;112.10;;;42.40;;
75246;SDS011;63844;50.042;19.224;2024-01-30T01:49:02;85.90;;;36.80;;
75246;SDS011;63844;50.042;19.224;2024-01-30T01:50:41;98.10;;;39.00;;
75246;SDS011;63844;50.042;19.224;2024-01-30T01:52:18;114.10;;;42.30;;
75246;SDS011;63844;50.042;19.224;2024-01-30T01:53:55;99.40;;;39.00;;
75246;SDS011;63844;50.042;19.224;2024-01-30T01:55:33;100.60;;;37.30;;
75246;SDS011;63844;50.042;19.224;2024-01-30T01:57:11;99.10;;;38.70;;
75246;SDS011;63844;50.042;19.224;2024-01-30T01:58:48;99.10;;;40.10;;
75246;SDS011;63844;50.042;19.224;2024-01-30T02:00:26;117.90;;;43.60;;
75246;SDS011;63844;50.042;19.224;2024-01-30T02:02:03;114.20;;;43.10;;
75246;SDS011;63844;50.042;19.224;2024-01-30T02:03:40;98.20;;;36.90;;
75246;SDS011;63844;50.042;19.224;2024-01-30T02:05:18;101.50;;;39.90;;
75246;SDS011;63844;50.042;19.224;2024-01-30T02:06:55;87.10;;;35.20;;
75246;SDS011;63844;50.042;19.224;2024-01-30T02:08:31;108.10;;;41.40;;
75246;SDS011;63844;50.042;19.224;2024-01-30T02:10:08;104.00;;;39.70;;
75246;SDS011;63844;50.042;19.224;2024-01-30T02:11:48;110.90;;;43.10;;
75246;SDS011;63844;50.042;19.224;2024-01-30T02:13:25;102.30;;;38.70;;
75246;SDS011;63844;50.042;19.224;2024-01-30T02:15:01;104.90;;;42.40;;
75246;SDS011;63844;50.042;19.224;2024-01-30T02:16:38;122.90;;;45.20;;
75246;SDS011;63844;50.042;19.224;2024-01-30T02:18:14;129.40;;;48.00;;
75246;SDS011;63844;50.042;19.224;2024-01-30T02:19:51;110.70;;;41.60;;
75246;SDS011;63844;50.042;19.224;2024-01-30T02:21:28;118.50;;;44.10;;
75246;SDS011;63844;50.042;19.224;2024-01-30T02:23:05;95.70;;;39.60;;
75246;SDS011;63844;50.042;19.224;2024-01-30T02:24:43;110.00;;;45.00;;
75246;SDS011;63844;50.042;19.224;2024-01-30T02:26:20;103.80;;;41.40;;
75246;SDS011;63844;50.042;19.224;2024-01-30T02:27:56;103.10;;;39.90;;
75246;SDS011;63844;50.042;19.224;2024-01-30T02:29:33;103.90;;;40.10;;
75246;SDS011;63844;50.042;19.224;2024-01-30T02:31:09;97.00;;;40.10;;
75246;SDS011;63844;50.042;19.224;2024-01-30T02:32:46;108.20;;;42.30;;
75246;SDS011;63844;50.042;19.224;2024-01-30T02:34:24;100.80;;;38.50;;
75246;SDS011;63844;50.042;19.224;2024-01-30T02:36:01;90.80;;;38.90;;
75246;SDS011;63844;50.042;19.224;2024-01-30T02:37:37;100.60;;;39.70;;
75246;SDS011;63844;50.042;19.224;2024-01-30T02:39:14;104.00;;;42.70;;
75246;SDS011;63844;50.042;19.224;2024-01-30T02:40:51;103.30;;;40.40;;
75246;SDS011;63844;50.042;19.224;2024-01-30T02:42:27;82.90;;;34.30;;
75246;SDS011;63844;50.042;19.224;2024-01-30T02:44:04;77.80;;;31.00;;
75246;SDS011;63844;50.042;19.224;2024-01-30T02:45:40;92.20;;;35.60;;
75246;SDS011;63844;50.042;19.224;2024-01-30T02:47:17;92.90;;;37.60;;
75246;SDS011;63844;50.042;19.224;2024-01-30T02:48:53;97.10;;;38.00;;
75246;SDS011;63844;50.042;19.224;2024-01-30T02:50:30;84.90;;;34.00;;
75246;SDS011;63844;50.042;19.224;2024-01-30T02:52:06;108.70;;;42.90;;
75246;SDS011;63844;50.042;19.224;2024-01-30T02:53:43;109.30;;;43.10;;
75246;SDS011;63844;50.042;19.224;2024-01-30T02:55:19;103.70;;;39.40;;
75246;SDS011;63844;50.042;19.224;2024-01-30T02:56:56;98.30;;;38.90;;
75246;SDS011;63844;50.042;19.224;2024-01-30T02:58:33;93.20;;;37.10;;
75246;SDS011;63844;50.042;19.224;2024-01-30T03:00:10;111.80;;;42.50;;
75246;SDS011;63844;50.042;19.224;2024-01-30T03:01:47;85.90;;;34.70;;
75246;SDS011;63844;50.042;19.224;2024-01-30T03:03:24;113.50;;;40.20;;
75246;SDS011;63844;50.042;19.224;2024-01-30T03:05:00;90.40;;;35.30;;
75246;SDS011;63844;50.042;19.224;2024-01-30T03:06:37;109.10;;;43.20;;
75246;SDS011;63844;50.042;19.224;2024-01-30T03:08:13;111.30;;;41.50;;
75246;SDS011;63844;50.042;19.224;2024-01-30T03:09:50;108.70;;;40.60;;
75246;SDS011;63844;50.042;19.224;2024-01-30T03:11:26;118.10;;;45.00;;
75246;SDS011;63844;50.042;19.224;2024-01-30T03:13:03;110.50;;;41.60;;
75246;SDS011;63844;50.042;19.224;2024-01-30T03:14:40;110.30;;;43.70;;
75246;SDS011;63844;50.042;19.224;2024-01-30T03:16:16;122.60;;;46.80;;
75246;SDS011;63844;50.042;19.224;2024-01-30T03:17:53;99.40;;;40.40;;
75246;SDS011;63844;50.042;19.224;2024-01-30T03:19:30;109.50;;;40.70;;
75246;SDS011;63844;50.042;19.224;2024-01-30T03:21:06;117.20;;;42.60;;
75246;SDS011;63844;50.042;19.224;2024-01-30T03:24:19;101.20;;;38.20;;
75246;SDS011;63844;50.042;19.224;2024-01-30T03:25:56;108.40;;;44.00;;
75246;SDS011;63844;50.042;19.224;2024-01-30T03:27:32;124.90;;;45.40;;
75246;SDS011;63844;50.042;19.224;2024-01-30T03:29:09;118.30;;;46.40;;
75246;SDS011;63844;50.042;19.224;2024-01-30T03:30:45;118.70;;;47.60;;
75246;SDS011;63844;50.042;19.224;2024-01-30T03:33:58;119.70;;;41.40;;
75246;SDS011;63844;50.042;19.224;2024-01-30T03:35:34;105.50;;;39.70;;
75246;SDS011;63844;50.042;19.224;2024-01-30T03:37:11;103.60;;;37.70;;
75246;SDS011;63844;50.042;19.224;2024-01-30T03:38:48;85.30;;;34.40;;
75246;SDS011;63844;50.042;19.224;2024-01-30T03:40:24;109.40;;;41.00;;
75246;SDS011;63844;50.042;19.224;2024-01-30T03:43:37;103.50;;;39.60;;
75246;SDS011;63844;50.042;19.224;2024-01-30T03:45:13;107.60;;;42.10;;
75246;SDS011;63844;50.042;19.224;2024-01-30T03:46:50;92.50;;;34.70;;
75246;SDS011;63844;50.042;19.224;2024-01-30T03:48:26;116.40;;;45.30;;
75246;SDS011;63844;50.042;19.224;2024-01-30T03:50:03;102.50;;;39.50;;
75246;SDS011;63844;50.042;19.224;2024-01-30T03:51:41;113.60;;;41.30;;
75246;SDS011;63844;50.042;19.224;2024-01-30T03:53:17;116.20;;;43.90;;
75246;SDS011;63844;50.042;19.224;2024-01-30T03:54:54;93.30;;;36.90;;
75246;SDS011;63844;50.042;19.224;2024-01-30T03:58:06;88.30;;;33.40;;
75246;SDS011;63844;50.042;19.224;2024-01-30T04:01:19;94.70;;;35.50;;
75246;SDS011;63844;50.042;19.224;2024-01-30T04:02:56;111.80;;;42.50;;
75246;SDS011;63844;50.042;19.224;2024-01-30T04:04:32;104.50;;;37.50;;
75246;SDS011;63844;50.042;19.224;2024-01-30T04:06:09;103.30;;;40.10;;
75246;SDS011;63844;50.042;19.224;2024-01-30T04:07:45;103.60;;;41.00;;
75246;SDS011;63844;50.042;19.224;2024-01-30T04:09:22;111.60;;;42.60;;
75246;SDS011;63844;50.042;19.224;2024-01-30T04:10:59;97.80;;;38.40;;
75246;SDS011;63844;50.042;19.224;2024-01-30T04:12:40;116.70;;;44.10;;
75246;SDS011;63844;50.042;19.224;2024-01-30T04:15:52;109.30;;;40.40;;
75246;SDS011;63844;50.042;19.224;2024-01-30T04:17:30;103.10;;;41.00;;
75246;SDS011;63844;50.042;19.224;2024-01-30T04:19:07;111.80;;;41.40;;
75246;SDS011;63844;50.042;19.224;2024-01-30T04:20:43;98.10;;;37.20;;
75246;SDS011;63844;50.042;19.224;2024-01-30T04:22:21;110.10;;;42.50;;
75246;SDS011;63844;50.042;19.224;2024-01-30T04:23:57;131.70;;;47.20;;
75246;SDS011;63844;50.042;19.224;2024-01-30T04:25:34;136.60;;;50.50;;
75246;SDS011;63844;50.042;19.224;2024-01-30T04:27:10;107.40;;;42.00;;
75246;SDS011;63844;50.042;19.224;2024-01-30T04:28:47;101.00;;;40.30;;
75246;SDS011;63844;50.042;19.224;2024-01-30T04:30:23;112.80;;;44.30;;
75246;SDS011;63844;50.042;19.224;2024-01-30T04:33:36;108.70;;;40.40;;
75246;SDS011;63844;50.042;19.224;2024-01-30T04:35:13;115.30;;;43.60;;
75246;SDS011;63844;50.042;19.224;2024-01-30T04:36:49;97.30;;;41.10;;
75246;SDS011;63844;50.042;19.224;2024-01-30T04:38:26;117.60;;;44.40;;
75246;SDS011;63844;50.042;19.224;2024-01-30T04:40:02;108.90;;;45.80;;
75246;SDS011;63844;50.042;19.224;2024-01-30T04:41:40;120.40;;;43.40;;
75246;SDS011;63844;50.042;19.224;2024-01-30T04:44:52;120.80;;;42.70;;
75246;SDS011;63844;50.042;19.224;2024-01-30T04:48:05;116.20;;;40.90;;
75246;SDS011;63844;50.042;19.224;2024-01-30T04:49:42;109.10;;;40.40;;
75246;SDS011;63844;50.042;19.224;2024-01-30T04:51:19;119.30;;;46.00;;
75246;SDS011;63844;50.042;19.224;2024-01-30T04:52:55;112.40;;;43.30;;
75246;SDS011;63844;50.042;19.224;2024-01-30T04:54:32;134.60;;;47.80;;
75246;SDS011;63844;50.042;19.224;2024-01-30T04:56:09;120.20;;;45.40;;
75246;SDS011;63844;50.042;19.224;2024-01-30T04:57:45;124.10;;;47.90;;
75246;SDS011;63844;50.042;19.224;2024-01-30T04:59:22;112.40;;;44.90;;
75246;SDS011;63844;50.042;19.224;2024-01-30T05:00:58;124.70;;;47.70;;
75246;SDS011;63844;50.042;19.224;2024-01-30T05:02:35;118.20;;;44.80;;
75246;SDS011;63844;50.042;19.224;2024-01-30T05:04:11;125.50;;;45.80;;
75246;SDS011;63844;50.042;19.224;2024-01-30T05:05:48;114.20;;;43.50;;
75246;SDS011;63844;50.042;19.224;2024-01-30T05:07:25;98.60;;;38.80;;
75246;SDS011;63844;50.042;19.224;2024-01-30T05:09:02;92.60;;;36.40;;
75246;SDS011;63844;50.042;19.224;2024-01-30T05:10:40;114.60;;;44.10;;
75246;SDS011;63844;50.042;19.224;2024-01-30T05:12:16;123.40;;;46.50;;
75246;SDS011;63844;50.042;19.224;2024-01-30T05:13:53;87.60;;;37.50;;
75246;SDS011;63844;50.042;19.224;2024-01-30T05:17:06;85.90;;;32.10;;
75246;SDS011;63844;50.042;19.224;2024-01-30T05:18:44;103.80;;;40.80;;
75246;SDS011;63844;50.042;19.224;2024-01-30T05:20:20;108.90;;;40.90;;
75246;SDS011;63844;50.042;19.224;2024-01-30T05:23:33;92.80;;;34.90;;
75246;SDS011;63844;50.042;19.224;2024-01-30T05:25:09;123.80;;;46.40;;
75246;SDS011;63844;50.042;19.224;2024-01-30T05:26:46;127.10;;;47.10;;
75246;SDS011;63844;50.042;19.224;2024-01-30T05:28:24;120.80;;;44.50;;
75246;SDS011;63844;50.042;19.224;2024-01-30T05:31:37;105.70;;;40.90;;
75246;SDS011;63844;50.042;19.224;2024-01-30T05:34:50;111.70;;;39.60;;
75246;SDS011;63844;50.042;19.224;2024-01-30T05:38:03;109.80;;;39.50;;
75246;SDS011;63844;50.042;19.224;2024-01-30T05:39:40;105.00;;;40.70;;
75246;SDS011;63844;50.042;19.224;2024-01-30T05:42:53;95.80;;;36.00;;
75246;SDS011;63844;50.042;19.224;2024-01-30T05:44:30;124.60;;;45.30;;
75246;SDS011;63844;50.042;19.224;2024-01-30T05:46:07;109.10;;;40.70;;
75246;SDS011;63844;50.042;19.224;2024-01-30T05:47:43;117.70;;;41.30;;
75246;SDS011;63844;50.042;19.224;2024-01-30T05:50:56;89.80;;;34.80;;
75246;SDS011;63844;50.042;19.224;2024-01-30T05:52:33;125.80;;;46.20;;
75246;SDS011;63844;50.042;19.224;2024-01-30T05:55:46;133.50;;;45.30;;
75246;SDS011;63844;50.042;19.224;2024-01-30T05:57:22;109.90;;;41.30;;
75246;SDS011;63844;50.042;19.224;2024-01-30T05:58:59;114.80;;;46.70;;
75246;SDS011;63844;50.042;19.224;2024-01-30T06:00:35;123.30;;;45.30;;
75246;SDS011;63844;50.042;19.224;2024-01-30T06:03:48;102.40;;;37.60;;
75246;SDS011;63844;50.042;19.224;2024-01-30T06:05:25;121.20;;;44.70;;
75246;SDS011;63844;50.042;19.224;2024-01-30T06:08:38;94.70;;;36.90;;
75246;SDS011;63844;50.042;19.224;2024-01-30T06:10:14;126.30;;;45.90;;
75246;SDS011;63844;50.042;19.224;2024-01-30T06:11:51;120.60;;;45.80;;
75246;SDS011;63844;50.042;19.224;2024-01-30T06:15:04;98.30;;;36.40;;
75246;SDS011;63844;50.042;19.224;2024-01-30T06:16:42;131.30;;;47.80;;
75246;SDS011;63844;50.042;19.224;2024-01-30T06:18:19;133.40;;;50.70;;
75246;SDS011;63844;50.042;19.224;2024-01-30T06:19:56;138.00;;;49.50;;
75246;SDS011;63844;50.042;19.224;2024-01-30T06:23:12;95.90;;;35.60;;
75246;SDS011;63844;50.042;19.224;2024-01-30T06:24:50;111.50;;;44.20;;
75246;SDS011;63844;50.042;19.224;2024-01-30T06:26:27;102.90;;;41.20;;
75246;SDS011;63844;50.042;19.224;2024-01-30T06:28:03;137.10;;;48.80;;
75246;SDS011;63844;50.042;19.224;2024-01-30T06:29:41;114.30;;;46.30;;
75246;SDS011;63844;50.042;19.224;2024-01-30T06:31:19;120.30;;;45.90;;
75246;SDS011;63844;50.042;19.224;2024-01-30T06:32:55;127.00;;;48.00;;
75246;SDS011;63844;50.042;19.224;2024-01-30T06:34:32;135.40;;;48.20;;
75246;SDS011;63844;50.042;19.224;2024-01-30T06:36:09;134.60;;;50.70;;
75246;SDS011;63844;50.042;19.224;2024-01-30T06:37:45;105.40;;;40.10;;
75246;SDS011;63844;50.042;19.224;2024-01-30T06:40:59;85.70;;;35.60;;
75246;SDS011;63844;50.042;19.224;2024-01-30T06:44:12;111.10;;;42.50;;
75246;SDS011;63844;50.042;19.224;2024-01-30T06:45:49;135.90;;;52.00;;
75246;SDS011;63844;50.042;19.224;2024-01-30T06:47:25;130.40;;;48.90;;
75246;SDS011;63844;50.042;19.224;2024-01-30T06:49:01;129.20;;;48.00;;
75246;SDS011;63844;50.042;19.224;2024-01-30T06:52:14;97.90;;;37.60;;
75246;SDS011;63844;50.042;19.224;2024-01-30T06:53:51;124.80;;;47.10;;
75246;SDS011;63844;50.042;19.224;2024-01-30T06:55:27;123.30;;;44.70;;
75246;SDS011;63844;50.042;19.224;2024-01-30T06:58:43;129.10;;;44.80;;
75246;SDS011;63844;50.042;19.224;2024-01-30T07:00:19;153.90;;;55.10;;
75246;SDS011;63844;50.042;19.224;2024-01-30T07:01:56;105.50;;;42.00;;
75246;SDS011;63844;50.042;19.224;2024-01-30T07:03:32;127.80;;;46.10;;
75246;SDS011;63844;50.042;19.224;2024-01-30T07:05:09;128.70;;;48.80;;
75246;SDS011;63844;50.042;19.224;2024-01-30T07:08:22;92.40;;;32.50;;
75246;SDS011;63844;50.042;19.224;2024-01-30T07:09:59;110.10;;;41.00;;
75246;SDS011;63844;50.042;19.224;2024-01-30T07:11:35;116.10;;;42.70;;
75246;SDS011;63844;50.042;19.224;2024-01-30T07:13:12;109.30;;;43.00;;
75246;SDS011;63844;50.042;19.224;2024-01-30T07:14:48;148.30;;;53.40;;
75246;SDS011;63844;50.042;19.224;2024-01-30T07:16:25;145.70;;;57.50;;
75246;SDS011;63844;50.042;19.224;2024-01-30T07:18:01;119.40;;;45.50;;
75246;SDS011;63844;50.042;19.224;2024-01-30T07:19:38;152.10;;;56.30;;
75246;SDS011;63844;50.042;19.224;2024-01-30T07:21:14;142.70;;;51.80;;
75246;SDS011;63844;50.042;19.224;2024-01-30T07:22:51;109.70;;;41.30;;
75246;SDS011;63844;50.042;19.224;2024-01-30T07:24:28;114.40;;;42.50;;
75246;SDS011;63844;50.042;19.224;2024-01-30T07:26:04;134.80;;;50.50;;
75246;SDS011;63844;50.042;19.224;2024-01-30T07:27:43;152.10;;;54.80;;
75246;SDS011;63844;50.042;19.224;2024-01-30T07:30:55;115.10;;;43.30;;
75246;SDS011;63844;50.042;19.224;2024-01-30T07:32:32;132.80;;;48.70;;
75246;SDS011;63844;50.042;19.224;2024-01-30T07:34:08;130.70;;;48.00;;
75246;SDS011;63844;50.042;19.224;2024-01-30T07:35:45;138.20;;;48.10;;
75246;SDS011;63844;50.042;19.224;2024-01-30T07:37:22;143.10;;;52.90;;
75246;SDS011;63844;50.042;19.224;2024-01-30T07:38:58;150.20;;;54.20;;
75246;SDS011;63844;50.042;19.224;2024-01-30T07:40:35;139.20;;;51.30;;
75246;SDS011;63844;50.042;19.224;2024-01-30T07:42:11;146.90;;;53.70;;
75246;SDS011;63844;50.042;19.224;2024-01-30T07:43:48;148.60;;;50.70;;
75246;SDS011;63844;50.042;19.224;2024-01-30T07:45:24;133.40;;;50.30;;
75246;SDS011;63844;50.042;19.224;2024-01-30T07:47:03;156.30;;;57.00;;
75246;SDS011;63844;50.042;19.224;2024-01-30T07:48:39;151.40;;;57.70;;
75246;SDS011;63844;50.042;19.224;2024-01-30T07:50:16;140.10;;;55.70;;
75246;SDS011;63844;50.042;19.224;2024-01-30T07:51:52;136.80;;;51.80;;
75246;SDS011;63844;50.042;19.224;2024-01-30T07:53:29;152.50;;;58.10;;
75246;SDS011;63844;50.042;19.224;2024-01-30T07:55:05;152.60;;;58.20;;
75246;SDS011;63844;50.042;19.224;2024-01-30T07:56:44;161.90;;;61.40;;
75246;SDS011;63844;50.042;19.224;2024-01-30T07:58:20;169.50;;;62.40;;
75246;SDS011;63844;50.042;19.224;2024-01-30T07:59:56;162.90;;;62.40;;
75246;SDS011;63844;50.042;19.224;2024-01-30T08:01:34;163.90;;;63.80;;
75246;SDS011;63844;50.042;19.224;2024-01-30T08:03:11;169.10;;;63.80;;
75246;SDS011;63844;50.042;19.224;2024-01-30T08:04:47;174.20;;;70.00;;
75246;SDS011;63844;50.042;19.224;2024-01-30T08:06:25;168.50;;;68.00;;
75246;SDS011;63844;50.042;19.224;2024-01-30T08:08:02;174.80;;;65.20;;
75246;SDS011;63844;50.042;19.224;2024-01-30T08:09:38;175.30;;;67.00;;
75246;SDS011;63844;50.042;19.224;2024-01-30T08:11:15;163.20;;;65.50;;
75246;SDS011;63844;50.042;19.224;2024-01-30T08:12:51;164.80;;;62.30;;
75246;SDS011;63844;50.042;19.224;2024-01-30T08:14:28;160.10;;;63.80;;
75246;SDS011;63844;50.042;19.224;2024-01-30T08:16:04;189.80;;;73.60;;
75246;SDS011;63844;50.042;19.224;2024-01-30T08:17:41;206.50;;;70.60;;
75246;SDS011;63844;50.042;19.224;2024-01-30T08:19:18;207.60;;;74.10;;
75246;SDS011;63844;50.042;19.224;2024-01-30T08:20:55;199.30;;;72.20;;
75246;SDS011;63844;50.042;19.224;2024-01-30T08:22:31;196.40;;;73.70;;
75246;SDS011;63844;50.042;19.224;2024-01-30T08:24:08;188.70;;;74.70;;
75246;SDS011;63844;50.042;19.224;2024-01-30T08:25:44;193.10;;;75.90;;
75246;SDS011;63844;50.042;19.224;2024-01-30T08:27:21;187.40;;;74.10;;
75246;SDS011;63844;50.042;19.224;2024-01-30T08:28:57;195.20;;;76.00;;
75246;SDS011;63844;50.042;19.224;2024-01-30T08:30:34;206.40;;;77.10;;
75246;SDS011;63844;50.042;19.224;2024-01-30T08:32:11;192.90;;;78.40;;
75246;SDS011;63844;50.042;19.224;2024-01-30T08:33:48;192.00;;;76.60;;
75246;SDS011;63844;50.042;19.224;2024-01-30T08:35:24;195.30;;;77.20;;
75246;SDS011;63844;50.042;19.224;2024-01-30T08:37:01;193.60;;;79.40;;
75246;SDS011;63844;50.042;19.224;2024-01-30T08:38:38;188.10;;;72.70;;
75246;SDS011;63844;50.042;19.224;2024-01-30T08:40:14;194.10;;;76.80;;
75246;SDS011;63844;50.042;19.224;2024-01-30T08:41:50;174.90;;;71.00;;
75246;SDS011;63844;50.042;19.224;2024-01-30T08:43:27;179.30;;;73.40;;
75246;SDS011;63844;50.042;19.224;2024-01-30T08:45:04;191.70;;;78.40;;
75246;SDS011;63844;50.042;19.224;2024-01-30T08:46:41;201.00;;;84.10;;
75246;SDS011;63844;50.042;19.224;2024-01-30T08:48:18;186.90;;;77.30;;
75246;SDS011;63844;50.042;19.224;2024-01-30T08:49:54;172.90;;;70.70;;
75246;SDS011;63844;50.042;19.224;2024-01-30T08:51:31;181.30;;;77.90;;
75246;SDS011;63844;50.042;19.224;2024-01-30T08:53:07;189.20;;;77.60;;
75246;SDS011;63844;50.042;19.224;2024-01-30T08:54:44;188.40;;;77.70;;
75246;SDS011;63844;50.042;19.224;2024-01-30T08:56:20;177.00;;;74.60;;
75246;SDS011;63844;50.042;19.224;2024-01-30T08:57:57;182.30;;;71.70;;
75246;SDS011;63844;50.042;19.224;2024-01-30T08:59:34;166.10;;;68.00;;
75246;SDS011;63844;50.042;19.224;2024-01-30T09:01:10;162.80;;;71.40;;
75246;SDS011;63844;50.042;19.224;2024-01-30T09:02:47;169.60;;;68.30;;
75246;SDS011;63844;50.042;19.224;2024-01-30T09:04:23;174.80;;;71.70;;
75246;SDS011;63844;50.042;19.224;2024-01-30T09:06:00;128.30;;;53.80;;
75246;SDS011;63844;50.042;19.224;2024-01-30T09:07:36;171.30;;;69.70;;
75246;SDS011;63844;50.042;19.224;2024-01-30T09:09:13;160.90;;;69.70;;
75246;SDS011;63844;50.042;19.224;2024-01-30T09:10:50;173.10;;;69.20;;
75246;SDS011;63844;50.042;19.224;2024-01-30T09:12:27;161.60;;;68.10;;
75246;SDS011;63844;50.042;19.224;2024-01-30T09:14:03;161.30;;;66.20;;
75246;SDS011;63844;50.042;19.224;2024-01-30T09:15:40;132.10;;;58.20;;
75246;SDS011;63844;50.042;19.224;2024-01-30T09:17:16;126.90;;;54.10;;
75246;SDS011;63844;50.042;19.224;2024-01-30T09:18:53;111.30;;;49.10;;
75246;SDS011;63844;50.042;19.224;2024-01-30T09:20:30;105.50;;;46.90;;
75246;SDS011;63844;50.042;19.224;2024-01-30T09:22:06;106.80;;;44.60;;
75246;SDS011;63844;50.042;19.224;2024-01-30T09:23:43;103.20;;;45.00;;
75246;SDS011;63844;50.042;19.224;2024-01-30T09:25:19;94.10;;;40.80;;
75246;SDS011;63844;50.042;19.224;2024-01-30T09:26:56;78.90;;;35.40;;
75246;SDS011;63844;50.042;19.224;2024-01-30T09:28:33;76.50;;;33.30;;
75246;SDS011;63844;50.042;19.224;2024-01-30T09:30:10;65.80;;;29.40;;
75246;SDS011;63844;50.042;19.224;2024-01-30T09:31:47;60.30;;;27.10;;
75246;SDS011;63844;50.042;19.224;2024-01-30T09:33:23;58.40;;;26.50;;
75246;SDS011;63844;50.042;19.224;2024-01-30T09:35:00;61.90;;;26.20;;
75246;SDS011;63844;50.042;19.224;2024-01-30T09:36:37;59.50;;;26.80;;
75246;SDS011;63844;50.042;19.224;2024-01-30T09:38:13;61.30;;;27.00;;
75246;SDS011;63844;50.042;19.224;2024-01-30T09:39:50;61.10;;;27.40;;
75246;SDS011;63844;50.042;19.224;2024-01-30T09:41:27;57.60;;;26.40;;
75246;SDS011;63844;50.042;19.224;2024-01-30T09:43:04;55.40;;;25.80;;
75246;SDS011;63844;50.042;19.224;2024-01-30T09:44:41;58.90;;;24.30;;
75246;SDS011;63844;50.042;19.224;2024-01-30T09:46:19;52.00;;;23.90;;
75246;SDS011;63844;50.042;19.224;2024-01-30T09:47:59;51.30;;;24.20;;
75246;SDS011;63844;50.042;19.224;2024-01-30T09:49:36;57.60;;;25.80;;
75246;SDS011;63844;50.042;19.224;2024-01-30T09:51:14;53.50;;;23.40;;
75246;SDS011;63844;50.042;19.224;2024-01-30T09:52:52;53.60;;;21.60;;
75246;SDS011;63844;50.042;19.224;2024-01-30T09:54:33;49.00;;;20.20;;
75246;SDS011;63844;50.042;19.224;2024-01-30T09:56:12;45.10;;;19.90;;
75246;SDS011;63844;50.042;19.224;2024-01-30T09:57:49;43.60;;;18.20;;
75246;SDS011;63844;50.042;19.224;2024-01-30T09:59:25;46.10;;;19.60;;
75246;SDS011;63844;50.042;19.224;2024-01-30T10:01:02;43.70;;;19.20;;
75246;SDS011;63844;50.042;19.224;2024-01-30T10:02:39;41.00;;;17.90;;
75246;SDS011;63844;50.042;19.224;2024-01-30T10:04:16;42.50;;;17.60;;
75246;SDS011;63844;50.042;19.224;2024-01-30T10:05:53;38.70;;;17.20;;
75246;SDS011;63844;50.042;19.224;2024-01-30T10:07:31;41.20;;;16.80;;
75246;SDS011;63844;50.042;19.224;2024-01-30T10:09:08;34.30;;;15.70;;
75246;SDS011;63844;50.042;19.224;2024-01-30T10:10:46;39.30;;;16.90;;